createdAt,value
2023-02-09T00:00:50.957Z,-1.82
2023-02-09T00:03:54.244Z,-1.86
2023-02-09T00:07:00.506Z,-1.89
2023-02-09T00:10:03.481Z,-1.94
2023-02-09T00:13:27.622Z,-1.96
2023-02-09T00:16:30.373Z,-1.94
2023-02-09T00:19:33.926Z,-1.96
2023-02-09T00:22:37.993Z,-1.97
2023-02-09T00:25:41.029Z,-2.09
2023-02-09T00:28:46.730Z,-2.16
2023-02-09T00:31:49.684Z,-2.27
2023-02-09T00:34:52.532Z,-2.33
2023-02-09T00:37:56.515Z,-2.41
2023-02-09T00:40:59.381Z,-2.50
2023-02-09T00:44:02.036Z,-2.60
2023-02-09T00:47:07.739Z,-2.63
2023-02-09T00:50:10.666Z,-2.72
2023-02-09T00:53:14.686Z,-2.85
2023-02-09T00:56:17.348Z,-2.87
2023-02-09T00:59:22.190Z,-2.91
2023-02-09T01:02:26.925Z,-3.01
2023-02-09T01:05:29.627Z,-3.02
2023-02-09T01:08:33.864Z,-3.08
2023-02-09T01:11:36.572Z,-3.08
2023-02-09T01:14:39.802Z,-3.16
2023-02-09T01:17:42.579Z,-3.10
2023-02-09T01:20:45.552Z,-3.16
2023-02-09T01:23:50.054Z,-3.20
2023-02-09T01:26:55.205Z,-3.24
2023-02-09T01:30:01.161Z,-3.33
2023-02-09T01:33:03.870Z,-3.36
2023-02-09T01:36:11.049Z,-3.39
2023-02-09T01:39:18.245Z,-3.38
2023-02-09T01:42:22.643Z,-3.37
2023-02-09T01:45:34.920Z,-3.39
2023-02-09T01:48:37.735Z,-3.40
2023-02-09T01:51:49.298Z,-3.43
2023-02-09T01:54:58.295Z,-3.39
2023-02-09T01:58:08.133Z,-3.47
2023-02-09T02:01:12.388Z,-3.49
2023-02-09T02:04:18.081Z,-3.47
2023-02-09T02:07:32.340Z,-3.51
2023-02-09T02:10:39.003Z,-3.55
2023-02-09T02:13:41.660Z,-3.54
2023-02-09T02:16:59.726Z,-3.52
2023-02-09T02:20:46.224Z,-3.60
2023-02-09T02:24:05.720Z,-3.61
2023-02-09T02:27:11.553Z,-3.50
2023-02-09T02:30:46.846Z,-3.39
2023-02-09T02:34:02.120Z,-3.46
2023-02-09T02:37:19.410Z,-3.46
2023-02-09T02:40:33.353Z,-3.54
2023-02-09T02:43:44.989Z,-3.50
2023-02-09T02:46:52.302Z,-3.52
2023-02-09T02:50:01.978Z,-3.54
2023-02-09T02:53:07.938Z,-3.48
2023-02-09T02:56:13.897Z,-3.17
2023-02-09T02:59:21.588Z,-3.15
2023-02-09T03:02:31.671Z,-3.11
2023-02-09T03:05:35.991Z,-3.16
2023-02-09T03:08:51.448Z,-3.18
2023-02-09T03:11:58.620Z,-3.12
2023-02-09T03:15:14.717Z,-3.16
2023-02-09T03:18:26.707Z,-3.19
2023-02-09T03:21:47.516Z,-3.23
2023-02-09T03:24:58.755Z,-3.25
2023-02-09T03:28:06.805Z,-3.24
2023-02-09T03:31:12.421Z,-3.25
2023-02-09T03:34:16.166Z,-3.20
2023-02-09T03:37:24.070Z,-3.21
2023-02-09T03:40:26.942Z,-3.24
2023-02-09T03:43:43.540Z,-3.27
2023-02-09T03:46:48.621Z,-3.32
2023-02-09T03:49:54.328Z,-3.35
2023-02-09T03:52:58.438Z,-3.38
2023-02-09T03:56:03.538Z,-3.39
2023-02-09T03:59:06.612Z,-3.39
2023-02-09T04:02:10.727Z,-3.42
2023-02-09T04:05:13.772Z,-3.47
2023-02-09T04:08:21.427Z,-3.55
2023-02-09T04:11:24.190Z,-3.62
2023-02-09T04:14:26.930Z,-3.70
2023-02-09T04:17:29.581Z,-3.75
2023-02-09T04:20:32.332Z,-3.84
2023-02-09T04:23:36.821Z,-3.91
2023-02-09T04:26:41.700Z,-3.94
2023-02-09T04:29:44.354Z,-4.00
2023-02-09T04:32:50.044Z,-4.03
2023-02-09T04:35:53.603Z,-4.03
2023-02-09T04:39:00.723Z,-4.16
2023-02-09T04:42:03.607Z,-4.12
2023-02-09T04:45:07.305Z,-4.19
2023-02-09T04:48:13.715Z,-4.19
2023-02-09T04:51:16.757Z,-4.26
2023-02-09T04:54:20.762Z,-4.29
2023-02-09T04:57:40.936Z,-4.33
2023-02-09T05:00:44.403Z,-4.37
2023-02-09T05:03:47.383Z,-4.35
2023-02-09T05:06:52.512Z,-4.43
2023-02-09T05:09:56.850Z,-4.48
2023-02-09T05:12:59.479Z,-4.51
2023-02-09T05:16:06.580Z,-4.55
2023-02-09T05:19:09.235Z,-4.56
2023-02-09T05:22:11.870Z,-4.61
2023-02-09T05:25:15.914Z,-4.62
2023-02-09T05:28:18.627Z,-4.63
2023-02-09T05:31:21.301Z,-4.69
2023-02-09T05:34:24.368Z,-4.66
2023-02-09T05:37:27.020Z,-4.69
2023-02-09T05:40:31.000Z,-4.73
2023-02-09T05:43:33.630Z,-4.73
2023-02-09T05:46:36.391Z,-4.73
2023-02-09T05:49:39.286Z,-4.74
2023-02-09T05:52:41.928Z,-4.75
2023-02-09T05:55:47.505Z,-4.70
2023-02-09T05:58:50.328Z,-4.66
2023-02-09T06:01:53.348Z,-4.73
2023-02-09T06:04:55.985Z,-4.68
2023-02-09T06:07:58.933Z,-4.72
2023-02-09T06:11:04.083Z,-4.76
2023-02-09T06:14:07.014Z,-4.80
2023-02-09T06:17:09.748Z,-4.82
2023-02-09T06:20:13.401Z,-4.84
2023-02-09T06:23:16.162Z,-4.79
2023-02-09T06:26:20.440Z,-4.86
2023-02-09T06:29:23.214Z,-4.87
2023-02-09T06:32:25.863Z,-4.89
2023-02-09T06:35:28.568Z,-4.97
2023-02-09T06:38:31.657Z,-5.10
2023-02-09T06:41:36.224Z,-5.02
2023-02-09T06:44:38.964Z,-5.02
2023-02-09T06:47:42.334Z,-5.08
2023-02-09T06:50:45.371Z,-5.05
2023-02-09T06:53:48.266Z,-5.10
2023-02-09T06:56:52.547Z,-5.09
2023-02-09T06:59:57.945Z,-5.08
2023-02-09T07:03:03.328Z,-5.04
2023-02-09T07:06:11.193Z,-5.03
2023-02-09T07:09:13.809Z,-5.01
2023-02-09T07:12:17.810Z,-4.98
2023-02-09T07:15:20.791Z,-4.93
2023-02-09T07:18:23.496Z,-4.90
2023-02-09T07:21:26.343Z,-4.84
2023-02-09T07:24:28.976Z,-4.71
2023-02-09T07:27:33.163Z,-4.72
2023-02-09T07:30:35.828Z,-4.67
2023-02-09T07:33:38.534Z,-4.67
2023-02-09T07:36:41.169Z,-4.65
2023-02-09T07:39:44.542Z,-4.54
2023-02-09T07:42:48.597Z,-4.35
2023-02-09T07:45:51.224Z,-4.35
2023-02-09T07:48:53.904Z,-4.39
2023-02-09T07:51:56.567Z,-4.28
2023-02-09T07:54:59.330Z,-3.99
2023-02-09T07:58:04.113Z,-3.69
2023-02-09T08:01:08.375Z,-3.50
2023-02-09T08:04:11.122Z,-3.22
2023-02-09T08:07:19.943Z,-3.26
2023-02-09T08:10:23.928Z,-3.33
2023-02-09T08:13:40.793Z,-3.34
2023-02-09T08:16:43.809Z,-3.48
2023-02-09T08:19:49.741Z,-3.59
2023-02-09T08:22:55.483Z,-3.57
2023-02-09T08:26:01.114Z,-3.48
2023-02-09T08:29:05.140Z,-3.43
2023-02-09T08:32:07.880Z,-3.38
2023-02-09T08:35:11.128Z,-3.22
2023-02-09T08:38:13.773Z,-3.22
2023-02-09T08:41:17.783Z,-3.13
2023-02-09T08:44:21.827Z,-3.12
2023-02-09T08:47:26.371Z,-3.02
2023-02-09T08:50:29.024Z,-2.88
2023-02-09T08:53:31.906Z,-2.87
2023-02-09T08:56:34.558Z,-2.73
2023-02-09T08:59:38.554Z,-2.67
2023-02-09T09:02:46.398Z,-2.51
2023-02-09T09:05:59.081Z,-2.51
2023-02-09T09:09:01.735Z,-2.40
2023-02-09T09:12:05.163Z,-2.28
2023-02-09T09:15:10.099Z,-2.19
2023-02-09T09:18:13.064Z,-2.07
2023-02-09T09:21:18.140Z,-2.01
2023-02-09T09:24:23.366Z,-1.86
2023-02-09T09:27:29.225Z,-1.75
2023-02-09T09:30:37.035Z,-1.68
2023-02-09T09:33:40.171Z,-1.64
2023-02-09T09:36:42.938Z,-1.48
2023-02-09T09:39:45.584Z,-1.45
2023-02-09T09:42:53.723Z,-1.39
2023-02-09T09:45:58.732Z,-1.43
2023-02-09T09:49:02.018Z,-1.49
2023-02-09T09:52:14.414Z,-1.32
2023-02-09T09:55:23.701Z,-1.30
2023-02-09T09:58:28.327Z,-1.14
2023-02-09T10:01:34.332Z,-1.13
2023-02-09T10:04:51.776Z,-1.05
2023-02-09T10:07:59.932Z,-0.96
2023-02-09T10:11:07.936Z,-0.90
2023-02-09T10:14:11.490Z,-0.80
2023-02-09T10:17:21.522Z,-0.79
2023-02-09T10:20:43.316Z,-0.75
2023-02-09T10:23:50.811Z,-0.62
2023-02-09T10:27:10.812Z,-0.61
2023-02-09T10:30:20.062Z,-0.52
2023-02-09T10:33:24.080Z,-0.42
2023-02-09T10:36:30.196Z,-0.32
2023-02-09T10:39:36.501Z,-0.21
2023-02-09T10:42:41.877Z,-0.07
2023-02-09T10:45:46.736Z,0.00
2023-02-09T10:48:50.940Z,-0.03
2023-02-09T10:52:06.853Z,0.13
2023-02-09T10:55:18.083Z,0.15
2023-02-09T10:58:26.960Z,0.31
2023-02-09T11:01:33.840Z,0.34
2023-02-09T11:04:40.658Z,0.41
2023-02-09T11:07:52.184Z,0.62
2023-02-09T11:11:03.915Z,0.71
2023-02-09T11:14:19.939Z,0.83
2023-02-09T11:17:30.942Z,0.90
2023-02-09T11:20:40.131Z,0.97
2023-02-09T11:27:31.009Z,1.28
2023-02-09T11:30:52.376Z,1.45
2023-02-09T11:34:06.772Z,1.52
2023-02-09T11:37:22.902Z,1.67
2023-02-09T11:40:30.312Z,1.73
2023-02-09T11:43:41.246Z,1.81
2023-02-09T11:46:50.263Z,1.98
2023-02-09T11:49:55.095Z,2.10
2023-02-09T11:53:02.820Z,2.16
2023-02-09T11:56:06.964Z,2.32
2023-02-09T11:59:21.731Z,2.43
2023-02-09T12:02:46.199Z,2.58
2023-02-09T12:05:51.757Z,2.72
2023-02-09T12:09:09.948Z,2.83
2023-02-09T12:12:23.701Z,2.95
2023-02-09T12:15:30.233Z,2.95
2023-02-09T12:18:36.125Z,3.01
2023-02-09T12:21:41.728Z,2.99
2023-02-09T12:25:14.082Z,3.01
2023-02-09T12:28:48.398Z,3.20
2023-02-09T12:32:27.540Z,3.24
2023-02-09T12:35:39.604Z,3.33
2023-02-09T12:38:54.527Z,3.42
2023-02-09T12:42:31.252Z,3.44
2023-02-09T12:45:36.811Z,3.53
2023-02-09T12:48:49.069Z,3.69
2023-02-09T12:52:16.296Z,3.79
2023-02-09T12:55:25.024Z,3.86
2023-02-09T12:58:41.268Z,3.92
2023-02-09T13:02:25.312Z,4.05
2023-02-09T13:05:30.868Z,4.13
2023-02-09T13:08:46.084Z,4.21
2023-02-09T13:11:52.362Z,4.16
2023-02-09T13:14:57.277Z,4.14
2023-02-09T13:18:12.940Z,4.08
2023-02-09T13:21:22.105Z,4.25
2023-02-09T13:24:33.920Z,4.30
2023-02-09T13:27:44.983Z,4.22
2023-02-09T13:30:50.552Z,4.19
2023-02-09T13:34:00.360Z,4.30
2023-02-09T13:37:16.171Z,4.40
2023-02-09T13:40:23.732Z,4.35
2023-02-09T13:43:34.805Z,4.23
2023-02-09T13:46:39.426Z,4.19
2023-02-09T13:49:42.414Z,4.20
2023-02-09T13:52:45.390Z,4.25
2023-02-09T13:55:50.026Z,4.11
2023-02-09T13:58:53.600Z,4.19
2023-02-09T14:01:57.754Z,4.28
2023-02-09T14:05:03.821Z,4.28
2023-02-09T14:08:07.635Z,4.26
2023-02-09T14:11:36.497Z,4.27
2023-02-09T14:15:06.180Z,4.44
2023-02-09T14:18:29.201Z,4.22
2023-02-09T14:21:44.391Z,4.25
2023-02-09T14:24:47.218Z,4.14
2023-02-09T14:27:50.420Z,4.37
2023-02-09T14:30:53.427Z,4.33
2023-02-09T14:33:58.149Z,4.27
2023-02-09T14:37:03.962Z,4.23
2023-02-09T14:40:21.933Z,4.23
2023-02-09T14:43:27.200Z,4.21
2023-02-09T14:46:46.551Z,4.22
2023-02-09T14:49:53.537Z,4.26
2023-02-09T14:53:11.842Z,4.29
2023-02-09T14:56:22.410Z,4.21
2023-02-09T14:59:25.370Z,4.20
2023-02-09T15:02:29.111Z,4.19
2023-02-09T15:05:33.375Z,4.28
2023-02-09T15:08:39.019Z,4.13
2023-02-09T15:11:59.855Z,4.12
2023-02-09T15:15:02.947Z,4.11
2023-02-09T15:18:06.322Z,3.96
2023-02-09T15:21:10.427Z,4.00
2023-02-09T15:24:14.030Z,3.87
2023-02-09T15:27:25.511Z,3.60
2023-02-09T15:30:31.668Z,3.65
2023-02-09T15:33:34.485Z,3.53
2023-02-09T15:36:38.876Z,3.52
2023-02-09T15:39:41.610Z,3.41
2023-02-09T15:43:05.412Z,3.43
2023-02-09T15:46:27.168Z,3.36
2023-02-09T15:49:30.913Z,3.30
2023-02-09T15:52:35.292Z,3.23
2023-02-09T15:55:38.961Z,3.12
2023-02-09T15:58:44.824Z,2.98
2023-02-09T16:01:48.489Z,2.92
2023-02-09T16:04:58.746Z,2.78
2023-02-09T16:08:02.879Z,2.67
2023-02-09T16:11:09.437Z,2.51
2023-02-09T16:14:16.491Z,2.16
2023-02-09T16:17:25.205Z,2.12
2023-02-09T16:20:29.014Z,2.04
2023-02-09T16:23:37.416Z,1.91
2023-02-09T16:26:40.068Z,1.79
2023-02-09T16:29:42.770Z,1.67
2023-02-09T16:32:45.810Z,1.60
2023-02-09T16:35:52.974Z,1.55
2023-02-09T16:38:56.989Z,1.47
2023-02-09T16:42:00.920Z,1.34
2023-02-09T16:45:03.864Z,1.27
2023-02-09T16:48:08.603Z,1.13
2023-02-09T16:51:14.154Z,1.04
2023-02-09T16:54:18.200Z,0.95
2023-02-09T16:57:26.629Z,0.70
2023-02-09T17:00:31.734Z,0.73
2023-02-09T17:03:36.047Z,0.76
2023-02-09T17:06:38.692Z,0.67
2023-02-09T17:09:42.728Z,0.66
2023-02-09T17:12:46.242Z,0.60
2023-02-09T17:15:52.762Z,0.53
2023-02-09T17:18:59.242Z,0.41
2023-02-09T17:22:09.908Z,0.44
2023-02-09T17:25:17.516Z,0.38
2023-02-09T17:28:22.693Z,0.40
2023-02-09T17:31:27.603Z,0.34
2023-02-09T17:34:30.463Z,0.30
2023-02-09T17:37:33.160Z,0.31
2023-02-09T17:40:37.945Z,0.24
2023-02-09T17:43:40.596Z,0.22
2023-02-09T17:46:43.331Z,0.19
2023-02-09T17:49:46.390Z,0.14
2023-02-09T17:52:49.592Z,0.09
2023-02-09T17:55:56.295Z,0.04
2023-02-09T17:59:02.998Z,-0.01
2023-02-09T18:02:15.116Z,-0.22
2023-02-09T18:05:20.735Z,-0.03
2023-02-09T18:08:23.405Z,-0.06
2023-02-09T18:11:41.628Z,-0.11
2023-02-09T18:14:44.292Z,-0.10
2023-02-09T18:17:47.025Z,-0.13
2023-02-09T18:20:49.662Z,-0.22
2023-02-09T18:23:52.358Z,-0.28
2023-02-09T18:26:56.545Z,-0.34
2023-02-09T18:29:59.514Z,-0.41
2023-02-09T18:33:03.085Z,-0.39
2023-02-09T18:36:07.516Z,-0.44
2023-02-09T18:39:10.617Z,-0.45
2023-02-09T18:42:16.128Z,-0.44
2023-02-09T18:45:21.479Z,-0.49
2023-02-09T18:48:24.195Z,-0.47
2023-02-09T18:51:30.053Z,-0.58
2023-02-09T18:54:33.692Z,-0.55
2023-02-09T18:57:37.860Z,-0.60
2023-02-09T19:00:40.943Z,-0.66
2023-02-09T19:03:44.478Z,-0.69
2023-02-09T19:06:47.075Z,-0.71
2023-02-09T19:09:49.886Z,-0.72
2023-02-09T19:12:54.302Z,-0.72
2023-02-09T19:15:57.093Z,-0.70
2023-02-09T19:19:00.766Z,-0.65
2023-02-09T19:22:03.503Z,-0.64
2023-02-09T19:25:06.792Z,-0.58
2023-02-09T19:28:11.336Z,-0.64
2023-02-09T19:31:14.730Z,-0.69
2023-02-09T19:34:20.435Z,-0.73
2023-02-09T19:37:23.232Z,-0.77
2023-02-09T19:40:35.535Z,-0.81
2023-02-09T19:43:40.534Z,-0.85
2023-02-09T19:46:43.700Z,-0.88
2023-02-09T19:49:46.498Z,-0.91
2023-02-09T19:52:50.298Z,-0.90
2023-02-09T19:55:54.318Z,-0.90
2023-02-09T19:59:01.924Z,-0.86
2023-02-09T20:02:04.740Z,-0.85
2023-02-09T20:05:08.531Z,-0.81
2023-02-09T20:08:14.516Z,-0.81
2023-02-09T20:11:23.381Z,-0.79
2023-02-09T20:14:33.043Z,-0.76
2023-02-09T20:17:36.288Z,-0.72
2023-02-09T20:20:42.078Z,-0.70
2023-02-09T20:23:46.671Z,-0.63
2023-02-09T20:26:49.572Z,-0.66
2023-02-09T20:29:57.160Z,-0.72
2023-02-09T20:33:02.134Z,-0.72
2023-02-09T20:36:06.288Z,-0.78
2023-02-09T20:39:13.327Z,-0.80
2023-02-09T20:42:33.802Z,-0.81
2023-02-09T20:45:55.410Z,-0.85
2023-02-09T20:48:58.093Z,-0.87
2023-02-09T20:52:00.800Z,-0.90
2023-02-09T20:55:10.006Z,-0.93
2023-02-09T20:58:13.670Z,-0.98
2023-02-09T21:01:24.133Z,-1.05
2023-02-09T21:04:29.998Z,-1.08
2023-02-09T21:07:41.196Z,-1.13
2023-02-09T21:10:43.810Z,-1.18
2023-02-09T21:13:46.692Z,-1.21
2023-02-09T21:16:55.465Z,-1.28
2023-02-09T21:19:58.091Z,-1.35
2023-02-09T21:23:00.728Z,-1.42
2023-02-09T21:26:04.853Z,-1.45
2023-02-09T21:29:07.907Z,-1.49
2023-02-09T21:32:12.016Z,-1.50
2023-02-09T21:35:14.805Z,-1.55
2023-02-09T21:38:17.437Z,-1.60
2023-02-09T21:41:39.682Z,-1.62
2023-02-09T21:44:42.594Z,-1.67
2023-02-09T21:47:46.658Z,-1.74
2023-02-09T21:50:49.262Z,-1.78
2023-02-09T21:53:52.646Z,-1.79
2023-02-09T21:56:55.267Z,-1.83
2023-02-09T21:59:59.023Z,-1.87
2023-02-09T22:03:05.872Z,-1.91
2023-02-09T22:06:08.931Z,-1.96
2023-02-09T22:09:11.536Z,-2.01
2023-02-09T22:12:14.249Z,-2.03
2023-02-09T22:15:18.027Z,-2.08
2023-02-09T22:18:24.624Z,-2.11
2023-02-09T22:21:27.468Z,-2.11
2023-02-09T22:24:34.671Z,-2.13
2023-02-09T22:27:37.351Z,-2.16
2023-02-09T22:30:40.134Z,-2.17
2023-02-09T22:33:44.707Z,-2.20
2023-02-09T22:36:47.417Z,-2.20
2023-02-09T22:39:50.138Z,-2.23
2023-02-09T22:42:55.245Z,-2.23
2023-02-09T22:45:58.328Z,-2.37
2023-02-09T22:49:07.110Z,-2.28
2023-02-09T22:52:09.736Z,-2.29
2023-02-09T22:55:14.597Z,-2.30
2023-02-09T22:58:17.359Z,-2.32
2023-02-09T23:01:20.080Z,-2.33
2023-02-09T23:04:32.021Z,-2.51
2023-02-09T23:07:34.717Z,-2.36
2023-02-09T23:10:40.041Z,-2.36
2023-02-09T23:13:43.081Z,-2.38
2023-02-09T23:16:46.846Z,-2.32
2023-02-09T23:19:53.663Z,-2.36
2023-02-09T23:22:56.388Z,-2.41
2023-02-09T23:25:59.338Z,-2.46
2023-02-09T23:29:03.872Z,-2.48
2023-02-09T23:32:06.694Z,-2.50
2023-02-09T23:35:10.839Z,-2.54
2023-02-09T23:38:17.942Z,-2.57
2023-02-09T23:41:21.013Z,-2.58
2023-02-09T23:44:23.651Z,-2.56
2023-02-09T23:47:26.438Z,-2.59
2023-02-09T23:50:38.219Z,-2.58
2023-02-09T23:53:41.287Z,-2.63
2023-02-09T23:56:48.662Z,-2.61
2023-02-09T23:59:58.640Z,-2.65
